sensor_id;sensor_type;location;lat;lon;timestamp;P1;durP1;ratioP1;P2;durP2;ratioP2
8946;SDS011;4508;48.790;9.028;2022-08-19T00:01:18;10.57;;;9.57;;
8946;SDS011;4508;48.790;9.028;2022-08-19T00:03:45;10.20;;;9.30;;
8946;SDS011;4508;48.790;9.028;2022-08-19T00:06:12;10.95;;;9.95;;
8946;SDS011;4508;48.790;9.028;2022-08-19T00:08:40;10.77;;;9.77;;
8946;SDS011;4508;48.790;9.028;2022-08-19T00:11:08;10.77;;;9.70;;
8946;SDS011;4508;48.790;9.028;2022-08-19T00:13:35;10.97;;;9.93;;
8946;SDS011;4508;48.790;9.028;2022-08-19T00:16:03;11.20;;;10.20;;
8946;SDS011;4508;48.790;9.028;2022-08-19T00:18:30;11.20;;;10.18;;
8946;SDS011;4508;48.790;9.028;2022-08-19T00:20:57;11.00;;;9.95;;
8946;SDS011;4508;48.790;9.028;2022-08-19T00:23:25;11.20;;;10.20;;
8946;SDS011;4508;48.790;9.028;2022-08-19T00:25:53;10.80;;;9.80;;
8946;SDS011;4508;48.790;9.028;2022-08-19T00:28:20;11.38;;;10.27;;
8946;SDS011;4508;48.790;9.028;2022-08-19T00:30:47;11.55;;;10.50;;
8946;SDS011;4508;48.790;9.028;2022-08-19T00:33:13;11.00;;;10.00;;
8946;SDS011;4508;48.790;9.028;2022-08-19T00:35:41;11.70;;;10.60;;
8946;SDS011;4508;48.790;9.028;2022-08-19T00:38:08;11.40;;;10.30;;
8946;SDS011;4508;48.790;9.028;2022-08-19T00:40:35;11.60;;;10.50;;
8946;SDS011;4508;48.790;9.028;2022-08-19T00:43:03;11.27;;;10.20;;
8946;SDS011;4508;48.790;9.028;2022-08-19T00:45:34;11.65;;;10.50;;
8946;SDS011;4508;48.790;9.028;2022-08-19T00:48:01;10.88;;;9.88;;
8946;SDS011;4508;48.790;9.028;2022-08-19T00:50:29;12.32;;;11.20;;
8946;SDS011;4508;48.790;9.028;2022-08-19T00:52:57;11.40;;;10.30;;
8946;SDS011;4508;48.790;9.028;2022-08-19T00:55:26;11.77;;;10.68;;
8946;SDS011;4508;48.790;9.028;2022-08-19T00:57:55;11.20;;;10.10;;
8946;SDS011;4508;48.790;9.028;2022-08-19T01:00:26;11.32;;;10.32;;
8946;SDS011;4508;48.790;9.028;2022-08-19T01:02:54;12.93;;;11.60;;
8946;SDS011;4508;48.790;9.028;2022-08-19T01:05:22;11.95;;;10.95;;
8946;SDS011;4508;48.790;9.028;2022-08-19T01:07:52;12.55;;;11.35;;
8946;SDS011;4508;48.790;9.028;2022-08-19T01:10:21;11.90;;;10.70;;
8946;SDS011;4508;48.790;9.028;2022-08-19T01:12:51;13.07;;;11.88;;
8946;SDS011;4508;48.790;9.028;2022-08-19T01:15:21;12.52;;;11.30;;
8946;SDS011;4508;48.790;9.028;2022-08-19T01:17:53;12.67;;;11.47;;
8946;SDS011;4508;48.790;9.028;2022-08-19T01:20:21;12.30;;;11.10;;
8946;SDS011;4508;48.790;9.028;2022-08-19T01:22:51;13.63;;;12.32;;
8946;SDS011;4508;48.790;9.028;2022-08-19T01:25:20;13.52;;;12.23;;
8946;SDS011;4508;48.790;9.028;2022-08-19T01:27:52;13.75;;;12.45;;
8946;SDS011;4508;48.790;9.028;2022-08-19T01:30:21;14.10;;;12.80;;
8946;SDS011;4508;48.790;9.028;2022-08-19T01:32:51;13.50;;;12.20;;
8946;SDS011;4508;48.790;9.028;2022-08-19T01:35:19;13.55;;;12.27;;
8946;SDS011;4508;48.790;9.028;2022-08-19T01:37:50;13.55;;;12.25;;
8946;SDS011;4508;48.790;9.028;2022-08-19T01:40:21;13.60;;;12.30;;
8946;SDS011;4508;48.790;9.028;2022-08-19T01:42:50;14.40;;;13.00;;
8946;SDS011;4508;48.790;9.028;2022-08-19T01:45:17;14.32;;;12.93;;
8946;SDS011;4508;48.790;9.028;2022-08-19T01:47:45;14.27;;;12.87;;
8946;SDS011;4508;48.790;9.028;2022-08-19T01:50:13;14.48;;;13.05;;
8946;SDS011;4508;48.790;9.028;2022-08-19T01:52:41;14.57;;;13.18;;
8946;SDS011;4508;48.790;9.028;2022-08-19T01:56:22;14.65;;;13.27;;
8946;SDS011;4508;48.790;9.028;2022-08-19T01:58:51;14.73;;;13.40;;
8946;SDS011;4508;48.790;9.028;2022-08-19T02:01:20;15.37;;;13.97;;
8946;SDS011;4508;48.790;9.028;2022-08-19T02:03:47;13.95;;;12.55;;
8946;SDS011;4508;48.790;9.028;2022-08-19T02:06:14;15.35;;;13.75;;
8946;SDS011;4508;48.790;9.028;2022-08-19T02:08:42;13.90;;;12.50;;
8946;SDS011;4508;48.790;9.028;2022-08-19T02:11:17;15.13;;;13.63;;
8946;SDS011;4508;48.790;9.028;2022-08-19T02:13:46;15.20;;;13.70;;
8946;SDS011;4508;48.790;9.028;2022-08-19T02:16:14;15.57;;;14.07;;
8946;SDS011;4508;48.790;9.028;2022-08-19T02:18:41;15.68;;;13.98;;
8946;SDS011;4508;48.790;9.028;2022-08-19T02:21:08;15.10;;;13.70;;
8946;SDS011;4508;48.790;9.028;2022-08-19T02:23:35;15.73;;;14.23;;
8946;SDS011;4508;48.790;9.028;2022-08-19T02:26:02;16.20;;;14.60;;
8946;SDS011;4508;48.790;9.028;2022-08-19T02:28:29;16.15;;;14.55;;
8946;SDS011;4508;48.790;9.028;2022-08-19T02:30:58;16.23;;;14.63;;
8946;SDS011;4508;48.790;9.028;2022-08-19T02:33:27;15.50;;;14.00;;
8946;SDS011;4508;48.790;9.028;2022-08-19T02:35:54;16.80;;;15.15;;
8946;SDS011;4508;48.790;9.028;2022-08-19T02:38:21;15.25;;;13.75;;
8946;SDS011;4508;48.790;9.028;2022-08-19T02:40:53;16.05;;;14.43;;
8946;SDS011;4508;48.790;9.028;2022-08-19T02:43:22;15.35;;;13.85;;
8946;SDS011;4508;48.790;9.028;2022-08-19T02:45:49;16.42;;;14.90;;
8946;SDS011;4508;48.790;9.028;2022-08-19T02:48:19;16.83;;;15.23;;
8946;SDS011;4508;48.790;9.028;2022-08-19T02:50:48;15.90;;;14.38;;
8946;SDS011;4508;48.790;9.028;2022-08-19T02:53:20;16.70;;;15.02;;
8946;SDS011;4508;48.790;9.028;2022-08-19T02:55:50;15.60;;;14.10;;
8946;SDS011;4508;48.790;9.028;2022-08-19T02:58:18;16.50;;;15.00;;
8946;SDS011;4508;48.790;9.028;2022-08-19T03:00:47;16.85;;;15.25;;
8946;SDS011;4508;48.790;9.028;2022-08-19T03:03:17;15.65;;;14.25;;
8946;SDS011;4508;48.790;9.028;2022-08-19T03:05:45;16.02;;;14.52;;
8946;SDS011;4508;48.790;9.028;2022-08-19T03:08:12;16.25;;;14.55;;
8946;SDS011;4508;48.790;9.028;2022-08-19T03:10:40;16.05;;;14.52;;
8946;SDS011;4508;48.790;9.028;2022-08-19T03:13:09;16.63;;;15.02;;
8946;SDS011;4508;48.790;9.028;2022-08-19T03:15:38;16.90;;;15.20;;
8946;SDS011;4508;48.790;9.028;2022-08-19T03:18:06;15.90;;;14.50;;
8946;SDS011;4508;48.790;9.028;2022-08-19T03:20:34;16.80;;;15.25;;
8946;SDS011;4508;48.790;9.028;2022-08-19T03:23:06;16.10;;;14.60;;
8946;SDS011;4508;48.790;9.028;2022-08-19T03:25:35;15.95;;;14.48;;
8946;SDS011;4508;48.790;9.028;2022-08-19T03:28:03;16.88;;;15.27;;
8946;SDS011;4508;48.790;9.028;2022-08-19T03:30:30;16.50;;;14.90;;
8946;SDS011;4508;48.790;9.028;2022-08-19T03:32:57;16.35;;;14.85;;
8946;SDS011;4508;48.790;9.028;2022-08-19T03:35:23;16.98;;;15.38;;
8946;SDS011;4508;48.790;9.028;2022-08-19T03:37:51;17.77;;;16.07;;
8946;SDS011;4508;48.790;9.028;2022-08-19T03:40:18;17.15;;;15.55;;
8946;SDS011;4508;48.790;9.028;2022-08-19T03:42:45;16.50;;;14.95;;
8946;SDS011;4508;48.790;9.028;2022-08-19T03:45:12;17.08;;;15.50;;
8946;SDS011;4508;48.790;9.028;2022-08-19T03:47:38;17.15;;;15.50;;
8946;SDS011;4508;48.790;9.028;2022-08-19T03:50:05;17.00;;;15.40;;
8946;SDS011;4508;48.790;9.028;2022-08-19T03:52:33;17.00;;;15.40;;
8946;SDS011;4508;48.790;9.028;2022-08-19T03:55:02;17.75;;;16.13;;
8946;SDS011;4508;48.790;9.028;2022-08-19T03:57:29;17.92;;;16.23;;
8946;SDS011;4508;48.790;9.028;2022-08-19T03:59:57;17.85;;;16.13;;
8946;SDS011;4508;48.790;9.028;2022-08-19T04:02:24;18.30;;;16.50;;
8946;SDS011;4508;48.790;9.028;2022-08-19T04:04:52;17.42;;;15.80;;
8946;SDS011;4508;48.790;9.028;2022-08-19T04:07:19;18.00;;;16.30;;
8946;SDS011;4508;48.790;9.028;2022-08-19T04:09:46;18.05;;;16.15;;
8946;SDS011;4508;48.790;9.028;2022-08-19T04:12:15;17.50;;;15.90;;
8946;SDS011;4508;48.790;9.028;2022-08-19T04:14:42;17.73;;;15.97;;
8946;SDS011;4508;48.790;9.028;2022-08-19T04:17:09;17.58;;;15.98;;
8946;SDS011;4508;48.790;9.028;2022-08-19T04:19:38;18.40;;;16.70;;
8946;SDS011;4508;48.790;9.028;2022-08-19T04:22:05;17.13;;;15.53;;
8946;SDS011;4508;48.790;9.028;2022-08-19T04:24:35;18.67;;;16.98;;
8946;SDS011;4508;48.790;9.028;2022-08-19T04:27:02;18.50;;;16.80;;
8946;SDS011;4508;48.790;9.028;2022-08-19T04:29:32;18.35;;;16.58;;
8946;SDS011;4508;48.790;9.028;2022-08-19T04:31:59;18.80;;;17.00;;
8946;SDS011;4508;48.790;9.028;2022-08-19T04:34:27;19.00;;;17.20;;
8946;SDS011;4508;48.790;9.028;2022-08-19T04:36:55;19.05;;;17.25;;
8946;SDS011;4508;48.790;9.028;2022-08-19T04:39:24;18.00;;;16.40;;
8946;SDS011;4508;48.790;9.028;2022-08-19T04:42:14;18.17;;;16.38;;
8946;SDS011;4508;48.790;9.028;2022-08-19T04:45:00;18.98;;;17.17;;
8946;SDS011;4508;48.790;9.028;2022-08-19T04:47:28;18.40;;;16.80;;
8946;SDS011;4508;48.790;9.028;2022-08-19T04:49:56;18.58;;;16.80;;
8946;SDS011;4508;48.790;9.028;2022-08-19T04:52:23;18.80;;;17.00;;
8946;SDS011;4508;48.790;9.028;2022-08-19T04:54:50;19.07;;;17.17;;
8946;SDS011;4508;48.790;9.028;2022-08-19T04:57:16;19.85;;;17.80;;
8946;SDS011;4508;48.790;9.028;2022-08-19T04:59:43;18.85;;;17.08;;
8946;SDS011;4508;48.790;9.028;2022-08-19T05:02:11;19.85;;;18.05;;
8946;SDS011;4508;48.790;9.028;2022-08-19T05:04:38;19.88;;;17.98;;
8946;SDS011;4508;48.790;9.028;2022-08-19T05:07:05;18.25;;;16.45;;
8946;SDS011;4508;48.790;9.028;2022-08-19T05:09:31;18.30;;;16.60;;
8946;SDS011;4508;48.790;9.028;2022-08-19T05:11:58;18.77;;;17.08;;
8946;SDS011;4508;48.790;9.028;2022-08-19T05:14:25;19.20;;;17.40;;
8946;SDS011;4508;48.790;9.028;2022-08-19T05:16:52;18.98;;;17.13;;
8946;SDS011;4508;48.790;9.028;2022-08-19T05:19:21;19.83;;;17.95;;
8946;SDS011;4508;48.790;9.028;2022-08-19T05:22:05;18.55;;;16.85;;
8946;SDS011;4508;48.790;9.028;2022-08-19T05:24:49;18.85;;;17.15;;
8946;SDS011;4508;48.790;9.028;2022-08-19T05:27:16;18.87;;;17.07;;
8946;SDS011;4508;48.790;9.028;2022-08-19T05:29:42;18.55;;;16.85;;
8946;SDS011;4508;48.790;9.028;2022-08-19T05:32:09;19.00;;;17.20;;
8946;SDS011;4508;48.790;9.028;2022-08-19T05:34:37;18.60;;;16.98;;
8946;SDS011;4508;48.790;9.028;2022-08-19T05:37:04;18.88;;;17.17;;
8946;SDS011;4508;48.790;9.028;2022-08-19T05:39:33;18.50;;;16.80;;
8946;SDS011;4508;48.790;9.028;2022-08-19T05:42:02;17.88;;;16.27;;
8946;SDS011;4508;48.790;9.028;2022-08-19T05:44:32;18.80;;;17.00;;
8946;SDS011;4508;48.790;9.028;2022-08-19T05:47:02;18.30;;;16.60;;
8946;SDS011;4508;48.790;9.028;2022-08-19T05:49:31;18.50;;;16.70;;
8946;SDS011;4508;48.790;9.028;2022-08-19T05:52:02;18.30;;;16.60;;
8946;SDS011;4508;48.790;9.028;2022-08-19T05:54:29;18.63;;;16.83;;
8946;SDS011;4508;48.790;9.028;2022-08-19T05:56:56;19.52;;;17.63;;
8946;SDS011;4508;48.790;9.028;2022-08-19T05:59:23;18.55;;;16.85;;
8946;SDS011;4508;48.790;9.028;2022-08-19T06:01:51;18.70;;;16.95;;
8946;SDS011;4508;48.790;9.028;2022-08-19T06:04:19;18.00;;;16.30;;
8946;SDS011;4508;48.790;9.028;2022-08-19T06:06:46;19.40;;;17.50;;
8946;SDS011;4508;48.790;9.028;2022-08-19T06:09:16;19.08;;;17.17;;
8946;SDS011;4508;48.790;9.028;2022-08-19T06:11:44;19.02;;;17.23;;
8946;SDS011;4508;48.790;9.028;2022-08-19T06:14:14;18.58;;;16.88;;
8946;SDS011;4508;48.790;9.028;2022-08-19T06:16:43;18.25;;;16.35;;
8946;SDS011;4508;48.790;9.028;2022-08-19T06:19:11;19.02;;;17.23;;
8946;SDS011;4508;48.790;9.028;2022-08-19T06:21:41;18.83;;;17.02;;
8946;SDS011;4508;48.790;9.028;2022-08-19T06:24:10;18.95;;;17.13;;
8946;SDS011;4508;48.790;9.028;2022-08-19T06:26:40;18.03;;;16.33;;
8946;SDS011;4508;48.790;9.028;2022-08-19T06:29:09;18.55;;;16.80;;
8946;SDS011;4508;48.790;9.028;2022-08-19T06:31:40;18.60;;;16.90;;
8946;SDS011;4508;48.790;9.028;2022-08-19T06:34:07;18.15;;;16.45;;
8946;SDS011;4508;48.790;9.028;2022-08-19T06:36:35;18.00;;;16.40;;
8946;SDS011;4508;48.790;9.028;2022-08-19T06:39:06;17.75;;;16.08;;
8946;SDS011;4508;48.790;9.028;2022-08-19T06:41:35;17.63;;;15.93;;
8946;SDS011;4508;48.790;9.028;2022-08-19T06:44:04;17.45;;;15.82;;
8946;SDS011;4508;48.790;9.028;2022-08-19T06:46:32;17.85;;;16.25;;
8946;SDS011;4508;48.790;9.028;2022-08-19T06:48:59;18.33;;;16.52;;
8946;SDS011;4508;48.790;9.028;2022-08-19T06:51:26;17.15;;;15.45;;
8946;SDS011;4508;48.790;9.028;2022-08-19T06:53:54;17.52;;;15.93;;
8946;SDS011;4508;48.790;9.028;2022-08-19T06:56:22;17.85;;;16.15;;
8946;SDS011;4508;48.790;9.028;2022-08-19T06:58:55;16.80;;;15.17;;
8946;SDS011;4508;48.790;9.028;2022-08-19T07:01:23;15.70;;;14.32;;
8946;SDS011;4508;48.790;9.028;2022-08-19T07:03:50;16.48;;;14.95;;
8946;SDS011;4508;48.790;9.028;2022-08-19T07:06:17;16.20;;;14.70;;
8946;SDS011;4508;48.790;9.028;2022-08-19T07:08:45;16.25;;;14.82;;
8946;SDS011;4508;48.790;9.028;2022-08-19T07:11:14;15.20;;;13.87;;
8946;SDS011;4508;48.790;9.028;2022-08-19T07:13:42;15.55;;;14.05;;
8946;SDS011;4508;48.790;9.028;2022-08-19T07:16:11;16.00;;;14.43;;
8946;SDS011;4508;48.790;9.028;2022-08-19T07:18:42;15.52;;;14.05;;
8946;SDS011;4508;48.790;9.028;2022-08-19T07:21:11;16.65;;;15.10;;
8946;SDS011;4508;48.790;9.028;2022-08-19T07:23:39;16.10;;;14.60;;
8946;SDS011;4508;48.790;9.028;2022-08-19T07:26:07;15.85;;;14.40;;
8946;SDS011;4508;48.790;9.028;2022-08-19T07:28:35;15.33;;;13.93;;
8946;SDS011;4508;48.790;9.028;2022-08-19T07:31:04;16.40;;;14.80;;
8946;SDS011;4508;48.790;9.028;2022-08-19T07:33:31;16.00;;;14.50;;
8946;SDS011;4508;48.790;9.028;2022-08-19T07:36:03;14.63;;;13.30;;
8946;SDS011;4508;48.790;9.028;2022-08-19T07:38:30;15.23;;;13.82;;
8946;SDS011;4508;48.790;9.028;2022-08-19T07:40:57;15.43;;;14.02;;
8946;SDS011;4508;48.790;9.028;2022-08-19T07:43:24;15.60;;;14.20;;
8946;SDS011;4508;48.790;9.028;2022-08-19T07:45:51;15.23;;;13.77;;
8946;SDS011;4508;48.790;9.028;2022-08-19T07:48:21;14.90;;;13.57;;
8946;SDS011;4508;48.790;9.028;2022-08-19T07:50:49;14.93;;;13.52;;
8946;SDS011;4508;48.790;9.028;2022-08-19T07:53:18;15.10;;;13.65;;
8946;SDS011;4508;48.790;9.028;2022-08-19T07:55:45;14.45;;;13.15;;
8946;SDS011;4508;48.790;9.028;2022-08-19T07:58:13;14.90;;;13.50;;
8946;SDS011;4508;48.790;9.028;2022-08-19T08:00:42;15.10;;;13.77;;
8946;SDS011;4508;48.790;9.028;2022-08-19T08:03:10;15.15;;;13.65;;
8946;SDS011;4508;48.790;9.028;2022-08-19T08:05:37;14.30;;;13.00;;
8946;SDS011;4508;48.790;9.028;2022-08-19T08:08:22;14.60;;;13.20;;
8946;SDS011;4508;48.790;9.028;2022-08-19T08:11:07;14.23;;;12.93;;
8946;SDS011;4508;48.790;9.028;2022-08-19T08:13:35;14.50;;;13.13;;
8946;SDS011;4508;48.790;9.028;2022-08-19T08:16:02;14.43;;;13.00;;
8946;SDS011;4508;48.790;9.028;2022-08-19T08:18:30;14.50;;;13.20;;
8946;SDS011;4508;48.790;9.028;2022-08-19T08:20:57;14.40;;;13.10;;
8946;SDS011;4508;48.790;9.028;2022-08-19T08:23:25;13.73;;;12.43;;
8946;SDS011;4508;48.790;9.028;2022-08-19T08:25:55;14.35;;;12.98;;
8946;SDS011;4508;48.790;9.028;2022-08-19T08:28:22;13.90;;;12.70;;
8946;SDS011;4508;48.790;9.028;2022-08-19T08:30:49;14.40;;;13.10;;
8946;SDS011;4508;48.790;9.028;2022-08-19T08:33:17;14.63;;;13.27;;
8946;SDS011;4508;48.790;9.028;2022-08-19T08:35:45;14.55;;;13.15;;
8946;SDS011;4508;48.790;9.028;2022-08-19T08:38:11;14.52;;;13.13;;
8946;SDS011;4508;48.790;9.028;2022-08-19T08:40:43;14.55;;;13.15;;
8946;SDS011;4508;48.790;9.028;2022-08-19T08:43:14;15.00;;;13.65;;
8946;SDS011;4508;48.790;9.028;2022-08-19T08:45:49;14.10;;;12.88;;
8946;SDS011;4508;48.790;9.028;2022-08-19T08:48:22;13.80;;;12.50;;
8946;SDS011;4508;48.790;9.028;2022-08-19T08:50:53;13.63;;;12.27;;
8946;SDS011;4508;48.790;9.028;2022-08-19T08:53:22;13.82;;;12.55;;
8946;SDS011;4508;48.790;9.028;2022-08-19T08:55:51;14.27;;;12.85;;
8946;SDS011;4508;48.790;9.028;2022-08-19T08:58:21;14.23;;;12.90;;
8946;SDS011;4508;48.790;9.028;2022-08-19T09:00:55;13.53;;;12.33;;
8946;SDS011;4508;48.790;9.028;2022-08-19T09:03:23;13.38;;;12.07;;
8946;SDS011;4508;48.790;9.028;2022-08-19T09:05:55;13.50;;;12.20;;
8946;SDS011;4508;48.790;9.028;2022-08-19T09:08:28;13.50;;;12.20;;
8946;SDS011;4508;48.790;9.028;2022-08-19T09:11:05;13.65;;;12.40;;
8946;SDS011;4508;48.790;9.028;2022-08-19T09:13:36;13.82;;;12.63;;
8946;SDS011;4508;48.790;9.028;2022-08-19T09:16:12;13.32;;;12.05;;
8946;SDS011;4508;48.790;9.028;2022-08-19T09:18:43;13.73;;;12.48;;
8946;SDS011;4508;48.790;9.028;2022-08-19T09:21:12;13.38;;;12.18;;
8946;SDS011;4508;48.790;9.028;2022-08-19T09:23:39;12.73;;;11.63;;
8946;SDS011;4508;48.790;9.028;2022-08-19T09:26:08;13.50;;;12.20;;
8946;SDS011;4508;48.790;9.028;2022-08-19T09:28:38;14.50;;;11.73;;
8946;SDS011;4508;48.790;9.028;2022-08-19T09:31:08;13.45;;;12.20;;
8946;SDS011;4508;48.790;9.028;2022-08-19T09:33:35;12.70;;;11.43;;
8946;SDS011;4508;48.790;9.028;2022-08-19T09:36:03;13.30;;;12.10;;
8946;SDS011;4508;48.790;9.028;2022-08-19T09:38:32;13.07;;;11.88;;
8946;SDS011;4508;48.790;9.028;2022-08-19T09:41:01;13.00;;;11.70;;
8946;SDS011;4508;48.790;9.028;2022-08-19T09:43:30;12.30;;;11.10;;
8946;SDS011;4508;48.790;9.028;2022-08-19T09:45:58;12.73;;;11.53;;
8946;SDS011;4508;48.790;9.028;2022-08-19T09:48:25;12.00;;;10.80;;
8946;SDS011;4508;48.790;9.028;2022-08-19T09:50:52;12.10;;;11.00;;
8946;SDS011;4508;48.790;9.028;2022-08-19T09:53:19;11.75;;;10.65;;
8946;SDS011;4508;48.790;9.028;2022-08-19T09:55:48;12.10;;;11.00;;
8946;SDS011;4508;48.790;9.028;2022-08-19T09:58:15;11.13;;;9.90;;
8946;SDS011;4508;48.790;9.028;2022-08-19T10:00:43;10.48;;;9.48;;
8946;SDS011;4508;48.790;9.028;2022-08-19T10:03:10;11.27;;;10.13;;
8946;SDS011;4508;48.790;9.028;2022-08-19T10:05:37;10.65;;;9.65;;
8946;SDS011;4508;48.790;9.028;2022-08-19T10:08:17;10.57;;;9.52;;
8946;SDS011;4508;48.790;9.028;2022-08-19T10:10:46;10.03;;;9.10;;
8946;SDS011;4508;48.790;9.028;2022-08-19T10:13:14;10.48;;;9.57;;
8946;SDS011;4508;48.790;9.028;2022-08-19T10:15:43;10.68;;;9.68;;
8946;SDS011;4508;48.790;9.028;2022-08-19T10:18:10;9.97;;;8.97;;
8946;SDS011;4508;48.790;9.028;2022-08-19T10:20:37;11.00;;;9.10;;
8946;SDS011;4508;48.790;9.028;2022-08-19T10:23:03;9.97;;;9.13;;
8946;SDS011;4508;48.790;9.028;2022-08-19T10:25:31;9.50;;;8.48;;
8946;SDS011;4508;48.790;9.028;2022-08-19T10:27:58;10.18;;;9.07;;
8946;SDS011;4508;48.790;9.028;2022-08-19T10:30:25;9.27;;;8.38;;
8946;SDS011;4508;48.790;9.028;2022-08-19T10:32:54;9.20;;;8.30;;
8946;SDS011;4508;48.790;9.028;2022-08-19T10:35:20;9.77;;;8.85;;
8946;SDS011;4508;48.790;9.028;2022-08-19T10:37:47;9.25;;;8.35;;
8946;SDS011;4508;48.790;9.028;2022-08-19T10:40:14;9.37;;;8.47;;
8946;SDS011;4508;48.790;9.028;2022-08-19T10:42:41;10.20;;;7.78;;
8946;SDS011;4508;48.790;9.028;2022-08-19T10:45:08;8.65;;;7.82;;
8946;SDS011;4508;48.790;9.028;2022-08-19T10:47:36;8.75;;;7.95;;
8946;SDS011;4508;48.790;9.028;2022-08-19T10:50:04;8.43;;;7.50;;
8946;SDS011;4508;48.790;9.028;2022-08-19T10:52:49;10.20;;;7.45;;
8946;SDS011;4508;48.790;9.028;2022-08-19T10:55:17;8.00;;;7.20;;
8946;SDS011;4508;48.790;9.028;2022-08-19T10:58:03;7.30;;;6.60;;
8946;SDS011;4508;48.790;9.028;2022-08-19T11:00:29;7.00;;;6.30;;
8946;SDS011;4508;48.790;9.028;2022-08-19T11:02:57;7.78;;;6.97;;
8946;SDS011;4508;48.790;9.028;2022-08-19T11:05:25;7.63;;;6.90;;
8946;SDS011;4508;48.790;9.028;2022-08-19T11:07:52;8.63;;;7.82;;
8946;SDS011;4508;48.790;9.028;2022-08-19T11:10:19;8.00;;;7.27;;
8946;SDS011;4508;48.790;9.028;2022-08-19T11:12:46;8.35;;;7.63;;
8946;SDS011;4508;48.790;9.028;2022-08-19T11:15:13;7.68;;;6.97;;
8946;SDS011;4508;48.790;9.028;2022-08-19T11:17:40;7.30;;;6.60;;
8946;SDS011;4508;48.790;9.028;2022-08-19T11:20:09;7.80;;;7.00;;
8946;SDS011;4508;48.790;9.028;2022-08-19T11:22:38;7.20;;;6.50;;
8946;SDS011;4508;48.790;9.028;2022-08-19T11:25:07;7.65;;;6.95;;
8946;SDS011;4508;48.790;9.028;2022-08-19T11:27:37;7.57;;;6.88;;
8946;SDS011;4508;48.790;9.028;2022-08-19T11:30:07;7.63;;;6.93;;
8946;SDS011;4508;48.790;9.028;2022-08-19T11:32:35;7.68;;;6.97;;
8946;SDS011;4508;48.790;9.028;2022-08-19T11:35:01;7.80;;;7.10;;
8946;SDS011;4508;48.790;9.028;2022-08-19T11:37:28;7.33;;;6.63;;
8946;SDS011;4508;48.790;9.028;2022-08-19T11:39:56;6.95;;;6.25;;
8946;SDS011;4508;48.790;9.028;2022-08-19T11:42:23;6.82;;;5.97;;
8946;SDS011;4508;48.790;9.028;2022-08-19T11:45:07;5.90;;;5.30;;
8946;SDS011;4508;48.790;9.028;2022-08-19T11:47:35;6.57;;;4.82;;
8946;SDS011;4508;48.790;9.028;2022-08-19T11:50:03;5.28;;;4.80;;
8946;SDS011;4508;48.790;9.028;2022-08-19T11:52:31;5.20;;;4.70;;
8946;SDS011;4508;48.790;9.028;2022-08-19T11:54:59;5.35;;;4.85;;
8946;SDS011;4508;48.790;9.028;2022-08-19T11:57:26;5.05;;;4.55;;
8946;SDS011;4508;48.790;9.028;2022-08-19T11:59:53;5.00;;;4.57;;
8946;SDS011;4508;48.790;9.028;2022-08-19T12:02:19;5.25;;;4.75;;
8946;SDS011;4508;48.790;9.028;2022-08-19T12:04:46;5.00;;;4.50;;
8946;SDS011;4508;48.790;9.028;2022-08-19T12:07:13;4.82;;;4.35;;
8946;SDS011;4508;48.790;9.028;2022-08-19T12:09:40;4.78;;;4.38;;
8946;SDS011;4508;48.790;9.028;2022-08-19T12:12:09;4.85;;;4.32;;
8946;SDS011;4508;48.790;9.028;2022-08-19T12:14:35;5.30;;;4.30;;
8946;SDS011;4508;48.790;9.028;2022-08-19T12:17:02;5.00;;;4.43;;
8946;SDS011;4508;48.790;9.028;2022-08-19T12:19:32;4.80;;;4.40;;
8946;SDS011;4508;48.790;9.028;2022-08-19T12:22:00;4.82;;;4.32;;
8946;SDS011;4508;48.790;9.028;2022-08-19T12:24:29;4.80;;;4.40;;
8946;SDS011;4508;48.790;9.028;2022-08-19T12:26:57;4.70;;;4.30;;
8946;SDS011;4508;48.790;9.028;2022-08-19T12:29:27;4.70;;;4.30;;
8946;SDS011;4508;48.790;9.028;2022-08-19T12:31:55;5.13;;;4.45;;
8946;SDS011;4508;48.790;9.028;2022-08-19T12:34:26;4.43;;;4.07;;
8946;SDS011;4508;48.790;9.028;2022-08-19T12:36:55;6.10;;;4.00;;
8946;SDS011;4508;48.790;9.028;2022-08-19T12:51:36;4.68;;;4.28;;
8946;SDS011;4508;48.790;9.028;2022-08-19T12:54:03;4.72;;;4.32;;
8946;SDS011;4508;48.790;9.028;2022-08-19T12:56:30;5.07;;;4.57;;
8946;SDS011;4508;48.790;9.028;2022-08-19T12:59:00;4.90;;;4.40;;
8946;SDS011;4508;48.790;9.028;2022-08-19T13:01:28;4.47;;;4.13;;
8946;SDS011;4508;48.790;9.028;2022-08-19T13:03:59;4.90;;;4.50;;
8946;SDS011;4508;48.790;9.028;2022-08-19T13:06:25;4.80;;;4.30;;
8946;SDS011;4508;48.790;9.028;2022-08-19T13:08:53;4.60;;;4.20;;
8946;SDS011;4508;48.790;9.028;2022-08-19T13:11:20;4.47;;;4.07;;
8946;SDS011;4508;48.790;9.028;2022-08-19T13:13:49;4.70;;;4.30;;
8946;SDS011;4508;48.790;9.028;2022-08-19T13:16:17;4.85;;;4.40;;
8946;SDS011;4508;48.790;9.028;2022-08-19T13:34:04;4.53;;;4.13;;
8946;SDS011;4508;48.790;9.028;2022-08-19T13:36:33;5.07;;;4.63;;
8946;SDS011;4508;48.790;9.028;2022-08-19T13:39:00;5.00;;;4.40;;
8946;SDS011;4508;48.790;9.028;2022-08-19T13:41:27;4.70;;;4.30;;
8946;SDS011;4508;48.790;9.028;2022-08-19T13:43:54;4.45;;;4.05;;
8946;SDS011;4508;48.790;9.028;2022-08-19T13:46:21;4.78;;;4.30;;
8946;SDS011;4508;48.790;9.028;2022-08-19T13:48:48;4.70;;;4.30;;
8946;SDS011;4508;48.790;9.028;2022-08-19T13:51:15;4.80;;;4.40;;
8946;SDS011;4508;48.790;9.028;2022-08-19T13:53:44;4.70;;;4.30;;
8946;SDS011;4508;48.790;9.028;2022-08-19T13:56:15;4.80;;;4.40;;
8946;SDS011;4508;48.790;9.028;2022-08-19T13:58:44;4.47;;;4.03;;
8946;SDS011;4508;48.790;9.028;2022-08-19T14:01:11;4.60;;;4.10;;
8946;SDS011;4508;48.790;9.028;2022-08-19T14:03:38;4.55;;;4.15;;
8946;SDS011;4508;48.790;9.028;2022-08-19T14:13:26;4.20;;;3.90;;
8946;SDS011;4508;48.790;9.028;2022-08-19T14:15:53;4.88;;;4.47;;
8946;SDS011;4508;48.790;9.028;2022-08-19T14:18:19;5.15;;;4.70;;
8946;SDS011;4508;48.790;9.028;2022-08-19T14:20:46;6.05;;;4.53;;
8946;SDS011;4508;48.790;9.028;2022-08-19T14:23:14;5.10;;;4.70;;
8946;SDS011;4508;48.790;9.028;2022-08-19T14:25:40;4.70;;;4.20;;
8946;SDS011;4508;48.790;9.028;2022-08-19T14:28:09;5.00;;;4.50;;
8946;SDS011;4508;48.790;9.028;2022-08-19T14:30:36;4.45;;;4.05;;
8946;SDS011;4508;48.790;9.028;2022-08-19T14:33:03;4.70;;;4.30;;
8946;SDS011;4508;48.790;9.028;2022-08-19T14:35:32;5.10;;;4.68;;
8946;SDS011;4508;48.790;9.028;2022-08-19T14:38:00;5.18;;;4.70;;
8946;SDS011;4508;48.790;9.028;2022-08-19T14:40:28;4.80;;;4.40;;
8946;SDS011;4508;48.790;9.028;2022-08-19T14:42:56;5.00;;;4.50;;
8946;SDS011;4508;48.790;9.028;2022-08-19T14:45:30;5.00;;;4.50;;
8946;SDS011;4508;48.790;9.028;2022-08-19T14:50:25;4.68;;;4.28;;
8946;SDS011;4508;48.790;9.028;2022-08-19T14:52:57;4.70;;;4.40;;
8946;SDS011;4508;48.790;9.028;2022-08-19T14:55:24;4.75;;;4.40;;
8946;SDS011;4508;48.790;9.028;2022-08-19T14:57:51;4.82;;;4.43;;
8946;SDS011;4508;48.790;9.028;2022-08-19T15:00:17;5.43;;;4.88;;
8946;SDS011;4508;48.790;9.028;2022-08-19T15:02:46;5.20;;;4.80;;
8946;SDS011;4508;48.790;9.028;2022-08-19T15:05:12;4.93;;;4.47;;
8946;SDS011;4508;48.790;9.028;2022-08-19T15:07:39;4.80;;;4.40;;
8946;SDS011;4508;48.790;9.028;2022-08-19T15:10:07;4.95;;;4.55;;
8946;SDS011;4508;48.790;9.028;2022-08-19T15:12:36;5.68;;;4.75;;
8946;SDS011;4508;48.790;9.028;2022-08-19T15:15:05;4.68;;;4.38;;
8946;SDS011;4508;48.790;9.028;2022-08-19T15:17:33;4.57;;;4.18;;
8946;SDS011;4508;48.790;9.028;2022-08-19T15:20:04;4.63;;;4.22;;
8946;SDS011;4508;48.790;9.028;2022-08-19T15:22:31;4.50;;;4.10;;
8946;SDS011;4508;48.790;9.028;2022-08-19T15:24:58;4.88;;;4.20;;
8946;SDS011;4508;48.790;9.028;2022-08-19T15:27:26;4.40;;;3.95;;
8946;SDS011;4508;48.790;9.028;2022-08-19T15:29:53;4.50;;;4.10;;
8946;SDS011;4508;48.790;9.028;2022-08-19T15:32:21;4.30;;;3.90;;
8946;SDS011;4508;48.790;9.028;2022-08-19T15:34:50;4.00;;;3.70;;
8946;SDS011;4508;48.790;9.028;2022-08-19T15:37:19;7.10;;;3.87;;
8946;SDS011;4508;48.790;9.028;2022-08-19T15:39:47;3.78;;;3.47;;
8946;SDS011;4508;48.790;9.028;2022-08-19T17:11:45;5.47;;;4.88;;
8946;SDS011;4508;48.790;9.028;2022-08-19T17:14:11;6.28;;;5.68;;